createdAt,value
2019-03-24T00:00:46.051Z,25.25
2019-03-24T00:01:52.131Z,26.20
2019-03-24T00:02:56.362Z,24.87
2019-03-24T00:04:00.610Z,23.87
2019-03-24T00:05:05.792Z,25.70
2019-03-24T00:06:10.016Z,25.10
2019-03-24T00:07:14.214Z,24.13
2019-03-24T00:08:18.382Z,24.13
2019-03-24T00:09:22.611Z,24.00
2019-03-24T00:10:26.793Z,24.27
2019-03-24T00:11:31.152Z,24.35
2019-03-24T00:12:35.349Z,25.88
2019-03-24T00:13:39.544Z,24.70
2019-03-24T00:14:43.729Z,25.35
2019-03-24T00:15:49.543Z,26.93
2019-03-24T00:16:53.903Z,27.22
2019-03-24T00:17:58.083Z,25.97
2019-03-24T00:19:02.268Z,26.57
2019-03-24T00:20:06.615Z,25.88
2019-03-24T00:21:10.798Z,26.40
2019-03-24T00:22:15.107Z,25.97
2019-03-24T00:23:19.754Z,26.48
2019-03-24T00:24:23.940Z,26.20
2019-03-24T00:25:28.125Z,25.30
2019-03-24T00:26:32.314Z,26.00
2019-03-24T00:27:36.534Z,25.88
2019-03-24T00:28:40.753Z,25.25
2019-03-24T00:29:44.935Z,25.75
2019-03-24T00:30:49.266Z,22.80
2019-03-24T00:31:53.485Z,26.48
2019-03-24T00:32:58.010Z,25.57
2019-03-24T00:34:02.262Z,25.88
2019-03-24T00:35:06.912Z,26.65
2019-03-24T00:36:11.089Z,25.00
2019-03-24T00:37:15.273Z,26.10
2019-03-24T00:38:19.473Z,25.53
2019-03-24T00:39:23.654Z,25.50
2019-03-24T00:40:27.832Z,26.57
2019-03-24T00:41:32.077Z,25.55
2019-03-24T00:42:36.257Z,25.65
2019-03-24T00:43:40.462Z,26.68
2019-03-24T00:44:44.666Z,23.32
2019-03-24T00:45:48.924Z,25.48
2019-03-24T00:46:53.135Z,26.42
2019-03-24T00:47:57.315Z,25.68
2019-03-24T00:49:01.617Z,25.80
2019-03-24T00:50:06.633Z,24.65
2019-03-24T00:51:10.880Z,25.07
2019-03-24T00:52:15.101Z,27.83
2019-03-24T00:53:20.087Z,24.57
2019-03-24T00:54:24.301Z,25.40
2019-03-24T00:55:28.581Z,26.17
2019-03-24T00:56:32.762Z,26.77
2019-03-24T00:57:37.752Z,26.42
2019-03-24T00:58:43.210Z,25.32
2019-03-24T00:59:47.452Z,26.68
2019-03-24T01:00:51.940Z,26.50
2019-03-24T01:01:56.126Z,24.45
2019-03-24T01:03:00.308Z,27.50
2019-03-24T01:04:04.993Z,26.90
2019-03-24T01:05:09.214Z,26.90
2019-03-24T01:06:14.712Z,27.63
2019-03-24T01:07:19.046Z,26.30
2019-03-24T01:08:24.266Z,28.07
2019-03-24T01:09:28.456Z,27.67
2019-03-24T01:10:33.733Z,28.77
2019-03-24T01:11:37.936Z,28.25
2019-03-24T01:12:42.113Z,26.17
2019-03-24T01:13:46.368Z,27.37
2019-03-24T01:14:50.551Z,27.70
2019-03-24T01:15:54.855Z,26.95
2019-03-24T01:16:59.060Z,28.32
2019-03-24T01:18:03.315Z,28.05
2019-03-24T01:19:07.493Z,30.00
2019-03-24T01:20:11.674Z,28.07
2019-03-24T01:21:15.926Z,27.27
2019-03-24T01:22:20.153Z,28.90
2019-03-24T01:23:24.408Z,27.22
2019-03-24T01:24:28.619Z,25.23
2019-03-24T01:25:33.152Z,28.87
2019-03-24T01:26:37.654Z,29.82
2019-03-24T01:27:41.838Z,28.40
2019-03-24T01:28:47.644Z,28.10
2019-03-24T01:29:51.826Z,28.30
2019-03-24T01:30:56.013Z,27.90
2019-03-24T01:32:00.279Z,29.15
2019-03-24T01:33:04.460Z,27.07
2019-03-24T01:34:08.648Z,28.47
2019-03-24T01:35:12.824Z,29.93
2019-03-24T01:36:17.099Z,29.10
2019-03-24T01:37:21.418Z,28.25
2019-03-24T01:38:25.610Z,27.75
2019-03-24T01:39:29.795Z,28.98
2019-03-24T01:40:33.990Z,28.30
2019-03-24T01:41:38.173Z,27.07
2019-03-24T01:42:42.379Z,26.55
2019-03-24T01:43:46.589Z,27.52
2019-03-24T01:44:50.771Z,27.82
2019-03-24T01:45:58.884Z,31.05
2019-03-24T01:47:00.830Z,28.38
2019-03-24T01:48:06.124Z,29.52
2019-03-24T01:49:10.374Z,29.57
2019-03-24T01:50:14.558Z,28.90
2019-03-24T01:51:18.845Z,28.07
2019-03-24T01:52:23.027Z,27.62
2019-03-24T01:53:27.239Z,29.35
2019-03-24T01:54:31.414Z,30.52
2019-03-24T01:55:35.615Z,29.52
2019-03-24T01:56:39.792Z,28.57
2019-03-24T01:57:43.974Z,29.72
2019-03-24T01:58:48.214Z,28.67
2019-03-24T01:59:52.433Z,29.90
2019-03-24T02:00:56.615Z,29.18
2019-03-24T02:02:00.837Z,28.32
2019-03-24T02:03:05.015Z,30.62
2019-03-24T02:04:09.219Z,29.65
2019-03-24T02:05:13.455Z,28.63
2019-03-24T02:06:19.424Z,30.57
2019-03-24T02:07:23.616Z,31.07
2019-03-24T02:08:27.812Z,28.02
2019-03-24T02:09:32.043Z,28.40
2019-03-24T02:10:36.271Z,29.87
2019-03-24T02:11:40.451Z,29.07
2019-03-24T02:12:44.729Z,29.32
2019-03-24T02:13:48.978Z,29.23
2019-03-24T02:14:53.483Z,30.52
2019-03-24T02:15:57.793Z,30.65
2019-03-24T02:17:01.974Z,31.07
2019-03-24T02:18:06.312Z,32.28
2019-03-24T02:19:10.499Z,31.65
2019-03-24T02:20:14.765Z,31.50
2019-03-24T02:21:18.917Z,32.40
2019-03-24T02:22:24.071Z,28.95
2019-03-24T02:23:28.255Z,29.00
2019-03-24T02:24:32.506Z,31.48
2019-03-24T02:25:36.802Z,30.62
2019-03-24T02:26:40.982Z,28.10
2019-03-24T02:27:45.163Z,30.12
2019-03-24T02:28:49.342Z,26.70
2019-03-24T02:29:53.531Z,29.48
2019-03-24T02:30:58.890Z,30.37
2019-03-24T02:32:03.048Z,27.55
2019-03-24T02:33:07.234Z,28.98
2019-03-24T02:34:11.406Z,28.07
2019-03-24T02:35:15.591Z,29.67
2019-03-24T02:36:19.791Z,29.83
2019-03-24T02:37:23.971Z,29.05
2019-03-24T02:38:28.475Z,29.50
2019-03-24T02:39:32.656Z,28.98
2019-03-24T02:40:36.944Z,30.88
2019-03-24T02:41:41.172Z,27.70
2019-03-24T02:42:46.413Z,29.37
2019-03-24T02:43:50.678Z,30.82
2019-03-24T02:44:54.849Z,30.68
2019-03-24T02:45:59.104Z,31.37
2019-03-24T02:47:03.495Z,30.77
2019-03-24T02:48:07.725Z,30.05
2019-03-24T02:49:11.908Z,29.67
2019-03-24T02:50:16.163Z,32.90
2019-03-24T02:51:20.383Z,31.53
2019-03-24T02:52:24.605Z,29.55
2019-03-24T02:53:28.786Z,29.82
2019-03-24T02:54:32.981Z,31.25
2019-03-24T02:55:37.148Z,32.28
2019-03-24T02:56:41.328Z,31.27
2019-03-24T02:57:45.549Z,31.52
2019-03-24T02:58:49.715Z,29.77
2019-03-24T02:59:53.969Z,32.15
2019-03-24T03:00:58.148Z,29.70
2019-03-24T03:02:02.327Z,28.92
2019-03-24T03:03:06.536Z,32.15
2019-03-24T03:04:10.712Z,31.87
2019-03-24T03:05:14.989Z,31.27
2019-03-24T03:06:19.177Z,31.53
2019-03-24T03:07:23.420Z,32.70
2019-03-24T03:08:27.621Z,32.10
2019-03-24T03:09:31.813Z,31.35
2019-03-24T03:10:36.355Z,31.00
2019-03-24T03:11:40.535Z,31.45
2019-03-24T03:12:47.746Z,33.42
2019-03-24T03:13:51.564Z,31.65
2019-03-24T03:14:55.751Z,31.65
2019-03-24T03:15:59.960Z,32.73
2019-03-24T03:17:04.484Z,31.57
2019-03-24T03:18:08.663Z,29.95
2019-03-24T03:19:12.840Z,31.43
2019-03-24T03:20:17.023Z,32.77
2019-03-24T03:21:21.242Z,31.03
2019-03-24T03:22:25.493Z,31.45
2019-03-24T03:23:29.677Z,31.12
2019-03-24T03:24:33.860Z,29.75
2019-03-24T03:25:38.035Z,34.13
2019-03-24T03:26:42.263Z,31.87
2019-03-24T03:27:46.442Z,31.55
2019-03-24T03:28:52.264Z,33.60
2019-03-24T03:30:00.883Z,32.73
2019-03-24T03:31:07.064Z,32.13
2019-03-24T03:32:11.757Z,32.73
2019-03-24T03:33:15.894Z,33.00
2019-03-24T03:34:20.071Z,31.53
2019-03-24T03:35:24.253Z,32.60
2019-03-24T03:36:28.441Z,31.85
2019-03-24T03:37:32.665Z,32.85
2019-03-24T03:38:36.892Z,33.92
2019-03-24T03:39:41.081Z,33.23
2019-03-24T03:40:45.305Z,33.13
2019-03-24T03:41:49.483Z,31.73
2019-03-24T03:42:53.777Z,33.53
2019-03-24T03:47:59.571Z,30.82
2019-03-24T03:49:09.461Z,33.50
2019-03-24T03:50:17.359Z,32.53
2019-03-24T03:51:22.568Z,35.63
2019-03-24T03:52:26.780Z,31.65
2019-03-24T03:53:31.976Z,32.05
2019-03-24T03:54:36.143Z,33.35
2019-03-24T03:55:40.319Z,31.23
2019-03-24T03:56:44.504Z,31.62
2019-03-24T03:57:48.675Z,31.95
2019-03-24T03:58:52.905Z,33.50
2019-03-24T03:59:57.213Z,31.87
2019-03-24T04:01:01.390Z,32.98
2019-03-24T04:02:05.663Z,33.70
2019-03-24T04:03:09.843Z,32.90
2019-03-24T04:04:14.619Z,31.65
2019-03-24T04:05:18.833Z,30.83
2019-03-24T04:06:23.012Z,34.13
2019-03-24T04:07:27.205Z,33.60
2019-03-24T04:08:31.503Z,32.85
2019-03-24T04:09:35.699Z,30.88
2019-03-24T04:10:40.014Z,32.67
2019-03-24T04:11:44.205Z,31.73
2019-03-24T04:12:48.526Z,33.80
2019-03-24T04:13:52.708Z,32.53
2019-03-24T04:14:56.962Z,34.58
2019-03-24T04:16:01.212Z,33.02
2019-03-24T04:17:07.462Z,33.50
2019-03-24T04:18:11.293Z,32.63
2019-03-24T04:19:15.463Z,32.87
2019-03-24T04:20:19.675Z,32.42
2019-03-24T04:21:24.164Z,32.75
2019-03-24T04:22:28.399Z,33.90
2019-03-24T04:23:32.584Z,32.53
2019-03-24T04:24:36.769Z,33.38
2019-03-24T04:25:40.957Z,35.43
2019-03-24T04:26:47.098Z,31.90
2019-03-24T04:27:51.282Z,33.13
2019-03-24T04:28:55.464Z,33.90
2019-03-24T04:29:59.658Z,31.52
2019-03-24T04:31:04.064Z,34.26
2019-03-24T04:32:08.273Z,34.03
2019-03-24T04:33:12.451Z,35.30
2019-03-24T04:34:16.644Z,33.57
2019-03-24T04:35:20.824Z,32.43
2019-03-24T04:36:25.006Z,33.67
2019-03-24T04:37:29.574Z,34.33
2019-03-24T04:38:33.751Z,34.85
2019-03-24T04:39:37.931Z,34.18
2019-03-24T04:40:42.123Z,34.67
2019-03-24T04:41:46.291Z,32.45
2019-03-24T04:42:50.536Z,36.58
2019-03-24T04:43:54.727Z,35.20
2019-03-24T04:44:58.943Z,35.60
2019-03-24T04:46:03.130Z,34.03
2019-03-24T04:47:16.287Z,33.90
2019-03-24T04:48:13.279Z,35.17
2019-03-24T04:49:17.456Z,35.43
2019-03-24T04:50:21.636Z,35.37
2019-03-24T04:51:25.814Z,34.00
2019-03-24T04:52:29.994Z,34.75
2019-03-24T04:53:34.822Z,35.30
2019-03-24T04:54:39.006Z,33.93
2019-03-24T04:55:43.294Z,35.78
2019-03-24T04:56:47.467Z,35.30
2019-03-24T04:57:51.647Z,35.70
2019-03-24T04:58:55.859Z,34.95
2019-03-24T05:00:00.054Z,35.77
2019-03-24T05:01:04.336Z,33.18
2019-03-24T05:02:08.514Z,36.30
2019-03-24T05:03:12.707Z,35.47
2019-03-24T05:04:16.974Z,35.93
2019-03-24T05:05:21.225Z,37.25
2019-03-24T05:06:25.408Z,36.10
2019-03-24T05:07:29.634Z,34.43
2019-03-24T05:08:33.824Z,34.63
2019-03-24T05:09:38.259Z,35.25
2019-03-24T05:10:42.426Z,34.73
2019-03-24T05:11:46.689Z,33.48
2019-03-24T05:12:50.926Z,34.90
2019-03-24T05:13:55.108Z,35.40
2019-03-24T05:14:59.296Z,35.48
2019-03-24T05:16:03.480Z,36.35
2019-03-24T05:17:07.684Z,36.00
2019-03-24T05:18:12.066Z,34.57
2019-03-24T05:19:16.318Z,34.93
2019-03-24T05:20:20.662Z,37.50
2019-03-24T05:21:25.090Z,36.10
2019-03-24T05:22:29.343Z,37.25
2019-03-24T05:23:33.551Z,35.60
2019-03-24T05:24:37.802Z,35.13
2019-03-24T05:25:42.006Z,32.63
2019-03-24T05:26:46.186Z,37.60
2019-03-24T05:27:50.398Z,35.43
2019-03-24T05:28:54.616Z,36.03
2019-03-24T05:29:58.790Z,37.03
2019-03-24T05:31:02.973Z,34.53
2019-03-24T05:32:07.149Z,33.20
2019-03-24T05:33:11.358Z,35.57
2019-03-24T05:34:15.573Z,36.80
2019-03-24T05:35:19.806Z,35.67
2019-03-24T05:36:24.053Z,35.28
2019-03-24T05:37:29.205Z,35.70
2019-03-24T05:38:37.967Z,32.65
2019-03-24T05:39:41.355Z,35.23
2019-03-24T05:40:45.534Z,36.10
2019-03-24T05:41:49.767Z,37.35
2019-03-24T05:42:54.899Z,36.08
2019-03-24T05:43:59.141Z,34.48
2019-03-24T05:45:08.854Z,35.74
2019-03-24T05:46:13.057Z,36.93
2019-03-24T05:47:17.231Z,35.27
2019-03-24T05:48:21.440Z,36.20
2019-03-24T05:49:25.596Z,35.20
2019-03-24T05:50:29.803Z,36.13
2019-03-24T05:51:34.074Z,33.48
2019-03-24T05:52:38.270Z,34.85
2019-03-24T05:53:44.085Z,32.60
2019-03-24T05:54:49.920Z,36.20
2019-03-24T05:55:54.105Z,35.33
2019-03-24T05:56:58.359Z,35.70
2019-03-24T05:58:02.540Z,37.00
2019-03-24T05:59:06.786Z,36.10
2019-03-24T06:00:12.214Z,35.53
2019-03-24T06:01:16.420Z,38.47
2019-03-24T06:02:21.670Z,37.97
2019-03-24T06:03:25.858Z,36.88
2019-03-24T06:04:30.047Z,37.33
2019-03-24T06:05:34.338Z,37.15
2019-03-24T06:06:40.702Z,36.10
2019-03-24T06:07:44.972Z,37.23
2019-03-24T06:08:49.162Z,37.40
2019-03-24T06:09:56.130Z,35.85
2019-03-24T06:11:00.359Z,37.38
2019-03-24T06:12:04.738Z,36.42
2019-03-24T06:13:09.289Z,34.33
2019-03-24T06:14:14.032Z,37.23
2019-03-24T06:15:18.209Z,35.97
2019-03-24T06:16:22.418Z,36.20
2019-03-24T06:17:26.626Z,35.43
2019-03-24T06:18:30.806Z,36.73
2019-03-24T06:19:34.985Z,37.13
2019-03-24T06:20:39.633Z,35.90
2019-03-24T06:21:43.893Z,35.08
2019-03-24T06:22:48.259Z,37.13
2019-03-24T06:23:52.706Z,36.75
2019-03-24T06:24:56.888Z,35.73
2019-03-24T06:26:01.066Z,34.55
2019-03-24T06:27:05.249Z,36.42
2019-03-24T06:28:09.452Z,37.48
2019-03-24T06:29:13.625Z,36.80
2019-03-24T06:30:17.820Z,37.70
2019-03-24T06:31:21.991Z,35.80
2019-03-24T06:32:26.170Z,35.90
2019-03-24T06:33:30.388Z,36.15
2019-03-24T06:34:34.589Z,35.60
2019-03-24T06:35:41.267Z,36.93
2019-03-24T06:36:45.446Z,39.88
2019-03-24T06:37:49.699Z,41.48
2019-03-24T06:38:53.935Z,43.90
2019-03-24T06:39:58.141Z,40.85
2019-03-24T06:41:03.070Z,40.90
2019-03-24T06:42:07.341Z,38.58
2019-03-24T06:43:11.555Z,41.63
2019-03-24T06:44:16.861Z,38.97
2019-03-24T06:45:28.371Z,39.10
2019-03-24T06:46:28.979Z,36.10
2019-03-24T06:47:33.154Z,37.93
2019-03-24T06:48:37.334Z,36.93
2019-03-24T06:49:45.887Z,38.78
2019-03-24T06:50:50.109Z,36.40
2019-03-24T06:51:54.574Z,36.50
2019-03-24T06:52:58.787Z,37.08
2019-03-24T06:54:03.010Z,36.70
2019-03-24T06:55:08.408Z,35.80
2019-03-24T06:56:12.747Z,37.23
2019-03-24T06:57:17.090Z,37.43
2019-03-24T06:58:21.285Z,37.65
2019-03-24T06:59:25.553Z,37.58
2019-03-24T07:00:29.768Z,37.90
2019-03-24T07:01:34.051Z,36.35
2019-03-24T07:02:38.230Z,35.65
2019-03-24T07:03:42.615Z,37.17
2019-03-24T07:04:46.803Z,36.28
2019-03-24T07:05:51.054Z,36.70
2019-03-24T07:06:55.703Z,34.90
2019-03-24T07:07:59.999Z,36.58
2019-03-24T07:09:06.203Z,36.44
2019-03-24T07:10:11.114Z,35.20
2019-03-24T07:11:15.369Z,36.15
2019-03-24T07:12:21.230Z,35.85
2019-03-24T07:13:25.514Z,33.05
2019-03-24T07:14:30.437Z,35.03
2019-03-24T07:15:34.618Z,35.13
2019-03-24T07:16:38.800Z,34.27
2019-03-24T07:17:43.006Z,34.70
2019-03-24T07:18:47.187Z,35.38
2019-03-24T07:19:51.371Z,34.65
2019-03-24T07:20:55.678Z,35.28
2019-03-24T07:22:01.041Z,33.70
2019-03-24T07:23:05.311Z,34.80
2019-03-24T07:24:09.586Z,36.75
2019-03-24T07:25:13.795Z,35.57
2019-03-24T07:26:17.977Z,35.00
2019-03-24T07:27:22.163Z,35.73
2019-03-24T07:28:26.342Z,34.40
2019-03-24T07:29:30.535Z,35.45
2019-03-24T07:30:34.840Z,33.50
2019-03-24T07:31:39.023Z,35.48
2019-03-24T07:32:43.213Z,33.23
2019-03-24T07:33:47.458Z,35.30
2019-03-24T07:34:51.641Z,35.17
2019-03-24T07:35:55.859Z,34.63
2019-03-24T07:37:01.083Z,32.13
2019-03-24T07:38:05.399Z,34.03
2019-03-24T07:39:09.647Z,35.60
2019-03-24T07:40:13.898Z,35.07
2019-03-24T07:41:18.123Z,35.03
2019-03-24T07:42:22.309Z,35.77
2019-03-24T07:43:26.594Z,35.45
2019-03-24T07:44:30.766Z,35.28
2019-03-24T07:45:36.124Z,34.78
2019-03-24T07:46:40.333Z,36.15
2019-03-24T07:47:44.539Z,37.20
2019-03-24T07:48:48.786Z,34.60
2019-03-24T07:49:54.061Z,35.00
2019-03-24T07:50:58.530Z,36.38
2019-03-24T07:52:02.806Z,34.38
2019-03-24T07:53:06.983Z,33.55
2019-03-24T07:54:11.214Z,34.40
2019-03-24T07:55:15.397Z,35.03
2019-03-24T07:56:22.491Z,35.93
2019-03-24T07:57:28.638Z,34.90
2019-03-24T07:58:32.964Z,33.85
2019-03-24T07:59:37.145Z,34.70
2019-03-24T08:00:41.388Z,33.92
2019-03-24T08:01:45.570Z,34.78
2019-03-24T08:02:52.478Z,34.18
2019-03-24T08:03:56.874Z,33.75
2019-03-24T08:05:01.063Z,36.65
2019-03-24T08:06:05.311Z,33.65
2019-03-24T08:07:09.513Z,34.30
2019-03-24T08:08:13.689Z,33.57
2019-03-24T08:09:17.970Z,33.77
2019-03-24T08:10:22.150Z,33.87
2019-03-24T08:11:26.402Z,33.63
2019-03-24T08:12:30.582Z,32.70
2019-03-24T08:13:34.778Z,29.42
2019-03-24T08:14:39.000Z,34.77
2019-03-24T08:15:43.178Z,32.90
2019-03-24T08:16:47.362Z,34.92
2019-03-24T08:17:51.584Z,34.10
2019-03-24T08:18:55.763Z,32.35
2019-03-24T08:19:59.990Z,33.92
2019-03-24T08:21:05.080Z,34.10
2019-03-24T08:22:09.282Z,33.95
2019-03-24T08:23:13.456Z,33.70
2019-03-24T08:24:17.674Z,33.90
2019-03-24T08:25:21.892Z,33.30
2019-03-24T08:26:26.070Z,33.42
2019-03-24T08:27:32.766Z,31.60
2019-03-24T08:28:37.138Z,32.95
2019-03-24T08:29:41.330Z,34.20
2019-03-24T08:30:45.558Z,32.30
2019-03-24T08:31:49.748Z,32.42
2019-03-24T08:32:53.994Z,32.40
2019-03-24T08:33:58.170Z,34.13
2019-03-24T08:35:02.485Z,31.07
2019-03-24T08:36:06.661Z,32.20
2019-03-24T08:37:11.300Z,33.10
2019-03-24T08:38:16.540Z,32.23
2019-03-24T08:39:20.719Z,30.53
2019-03-24T08:40:24.898Z,32.35
2019-03-24T08:41:29.079Z,32.78
2019-03-24T08:42:33.294Z,31.40
2019-03-24T08:43:37.473Z,31.42
2019-03-24T08:44:41.731Z,33.90
2019-03-24T08:45:45.994Z,28.87
2019-03-24T08:46:50.176Z,29.15
2019-03-24T08:47:54.855Z,32.70
2019-03-24T08:48:59.103Z,30.02
2019-03-24T08:50:03.459Z,31.07
2019-03-24T08:51:07.654Z,32.35
2019-03-24T08:52:11.835Z,32.20
2019-03-24T08:53:16.064Z,31.47
2019-03-24T08:54:20.289Z,30.80
2019-03-24T08:55:24.418Z,32.35
2019-03-24T08:56:28.598Z,31.97
2019-03-24T08:57:32.778Z,33.30
2019-03-24T08:58:36.984Z,30.30
2019-03-24T08:59:41.493Z,30.57
2019-03-24T09:00:45.772Z,30.60
2019-03-24T09:01:49.941Z,29.92
2019-03-24T09:02:54.122Z,31.35
2019-03-24T09:03:58.291Z,32.10
2019-03-24T09:05:02.499Z,29.98
2019-03-24T09:06:06.686Z,29.87
2019-03-24T09:07:10.850Z,31.93
2019-03-24T09:08:15.057Z,30.83
2019-03-24T09:09:19.212Z,31.13
2019-03-24T09:10:23.488Z,29.57
2019-03-24T09:11:31.549Z,30.62
2019-03-24T09:12:33.605Z,29.87
2019-03-24T09:13:37.790Z,31.87
2019-03-24T09:14:42.041Z,30.85
2019-03-24T09:15:46.236Z,30.82
2019-03-24T09:16:50.446Z,29.45
2019-03-24T09:17:54.648Z,30.40
2019-03-24T09:18:58.834Z,31.02
2019-03-24T09:20:03.045Z,30.73
2019-03-24T09:21:07.250Z,31.15
2019-03-24T09:22:11.476Z,32.27
2019-03-24T09:23:15.670Z,30.55
2019-03-24T09:24:19.866Z,30.03
2019-03-24T09:25:24.067Z,29.30
2019-03-24T09:26:28.238Z,30.43
2019-03-24T09:27:32.443Z,31.35
2019-03-24T09:28:36.620Z,29.98
2019-03-24T09:29:40.804Z,29.00
2019-03-24T09:30:44.982Z,28.25
2019-03-24T09:31:49.191Z,28.30
2019-03-24T09:32:53.366Z,29.90
2019-03-24T09:33:57.575Z,26.70
2019-03-24T09:35:01.755Z,28.57
2019-03-24T09:36:06.007Z,26.97
2019-03-24T09:37:11.227Z,27.00
2019-03-24T09:38:15.436Z,27.23
2019-03-24T09:39:19.617Z,27.17
2019-03-24T09:40:30.114Z,28.75
2019-03-24T09:41:35.396Z,26.35
2019-03-24T09:42:39.615Z,25.97
2019-03-24T09:43:43.797Z,27.90
2019-03-24T09:44:47.984Z,26.80
2019-03-24T09:45:52.168Z,29.27
2019-03-24T09:46:56.350Z,25.40
2019-03-24T09:48:00.827Z,27.82
2019-03-24T09:49:05.111Z,27.02
2019-03-24T09:50:09.290Z,27.70
2019-03-24T09:51:13.471Z,28.10
2019-03-24T09:52:18.622Z,30.10
2019-03-24T09:53:22.839Z,29.07
2019-03-24T09:54:27.115Z,27.52
2019-03-24T09:55:31.296Z,28.52
2019-03-24T09:56:35.545Z,27.95
2019-03-24T09:57:39.723Z,29.27
2019-03-24T09:58:43.927Z,29.07
2019-03-24T09:59:48.137Z,28.35
2019-03-24T10:00:52.374Z,29.32
2019-03-24T10:01:56.561Z,28.62
2019-03-24T10:03:01.586Z,27.25
2019-03-24T10:04:05.763Z,30.70
2019-03-24T10:05:09.986Z,28.00
2019-03-24T10:06:14.164Z,29.20
2019-03-24T10:07:18.377Z,28.27
2019-03-24T10:08:22.598Z,30.13
2019-03-24T10:09:26.803Z,29.05
2019-03-24T10:10:31.029Z,31.17
2019-03-24T10:11:35.205Z,29.75
2019-03-24T10:12:39.457Z,29.12
2019-03-24T10:13:43.640Z,31.60
2019-03-24T10:14:47.821Z,30.40
2019-03-24T10:15:52.094Z,30.25
2019-03-24T10:16:56.296Z,29.40
2019-03-24T10:18:00.474Z,30.00
2019-03-24T10:19:13.514Z,30.60
2019-03-24T10:20:10.585Z,30.87
2019-03-24T10:21:14.790Z,32.00
2019-03-24T10:22:18.967Z,31.13
2019-03-24T10:23:23.152Z,29.33
2019-03-24T10:24:27.325Z,28.67
2019-03-24T10:25:31.634Z,29.80
2019-03-24T10:26:35.818Z,31.15
2019-03-24T10:27:39.998Z,29.87
2019-03-24T10:28:44.183Z,31.23
2019-03-24T10:29:48.366Z,31.30
2019-03-24T10:30:52.595Z,31.00
2019-03-24T10:31:56.780Z,29.67
2019-03-24T10:33:00.968Z,30.35
2019-03-24T10:34:05.159Z,28.60
2019-03-24T10:35:10.014Z,27.65
2019-03-24T10:36:14.314Z,29.13
2019-03-24T10:37:18.498Z,28.83
2019-03-24T10:38:22.680Z,29.33
2019-03-24T10:39:26.866Z,29.15
2019-03-24T10:40:31.377Z,28.70
2019-03-24T10:41:36.060Z,26.87
2019-03-24T10:42:40.243Z,29.17
2019-03-24T10:43:44.437Z,29.67
2019-03-24T10:44:48.762Z,28.98
2019-03-24T10:45:53.002Z,28.85
2019-03-24T10:46:57.244Z,28.27
2019-03-24T10:48:01.424Z,28.65
2019-03-24T10:49:05.680Z,28.50
2019-03-24T10:50:10.018Z,30.10
2019-03-24T10:51:14.203Z,31.43
2019-03-24T10:52:18.413Z,33.57
2019-03-24T10:53:22.599Z,32.48
2019-03-24T10:54:26.818Z,32.17
2019-03-24T10:55:30.986Z,28.57
2019-03-24T10:56:35.170Z,31.20
2019-03-24T10:57:39.491Z,31.85
2019-03-24T10:58:43.681Z,31.42
2019-03-24T10:59:47.856Z,31.82
2019-03-24T11:00:52.057Z,28.02
2019-03-24T11:01:56.238Z,28.02
2019-03-24T11:03:00.486Z,28.05
2019-03-24T11:04:04.653Z,28.52
2019-03-24T11:05:08.817Z,29.45
2019-03-24T11:06:12.994Z,28.67
2019-03-24T11:07:17.178Z,30.23
2019-03-24T11:08:21.395Z,29.07
2019-03-24T11:09:25.571Z,28.75
2019-03-24T11:10:29.808Z,28.73
2019-03-24T11:11:33.994Z,29.18
2019-03-24T11:12:38.165Z,29.10
2019-03-24T11:13:42.449Z,28.30
2019-03-24T11:14:47.322Z,28.70
2019-03-24T11:15:51.521Z,28.80
2019-03-24T11:16:55.693Z,29.37
2019-03-24T11:17:59.866Z,28.25
2019-03-24T11:19:04.608Z,27.98
2019-03-24T11:20:08.747Z,27.73
2019-03-24T11:21:12.931Z,28.63
2019-03-24T11:22:17.178Z,28.45
2019-03-24T11:23:21.406Z,28.93
2019-03-24T11:24:25.580Z,27.55
2019-03-24T11:25:29.753Z,28.23
2019-03-24T11:26:33.939Z,28.50
2019-03-24T11:27:38.391Z,29.85
2019-03-24T11:28:42.575Z,28.98
2019-03-24T11:29:46.784Z,28.57
2019-03-24T11:30:50.963Z,29.42
2019-03-24T11:31:55.215Z,27.93
2019-03-24T11:32:59.399Z,28.73
2019-03-24T11:34:04.650Z,26.87
2019-03-24T11:35:09.660Z,28.73
2019-03-24T11:36:13.855Z,28.50
2019-03-24T11:37:18.043Z,28.37
2019-03-24T11:38:22.259Z,28.20
2019-03-24T11:39:26.442Z,29.12
2019-03-24T11:40:30.654Z,30.60
2019-03-24T11:41:34.837Z,28.90
2019-03-24T11:42:39.029Z,29.03
2019-03-24T11:43:43.203Z,29.20
2019-03-24T11:44:47.387Z,27.95
2019-03-24T11:45:51.695Z,28.75
2019-03-24T11:46:55.947Z,27.50
2019-03-24T11:48:00.132Z,29.15
2019-03-24T11:49:04.810Z,28.64
2019-03-24T11:50:08.990Z,29.85
2019-03-24T11:51:13.199Z,29.80
2019-03-24T11:52:17.380Z,30.10
2019-03-24T11:53:21.583Z,28.55
2019-03-24T11:54:25.746Z,28.98
2019-03-24T11:55:29.932Z,29.05
2019-03-24T11:56:34.431Z,29.25
2019-03-24T11:57:38.615Z,30.30
2019-03-24T11:58:42.822Z,29.55
2019-03-24T11:59:46.977Z,29.77
2019-03-24T12:00:51.158Z,30.97
2019-03-24T12:01:55.369Z,29.92
2019-03-24T12:02:59.550Z,30.68
2019-03-24T12:04:03.806Z,31.05
2019-03-24T12:05:07.988Z,31.87
2019-03-24T12:06:14.843Z,30.07
2019-03-24T12:07:20.503Z,30.37
2019-03-24T12:08:24.732Z,31.23
2019-03-24T12:09:29.139Z,30.72
2019-03-24T12:10:33.325Z,31.27
2019-03-24T12:11:37.506Z,29.83
2019-03-24T12:12:41.799Z,29.67
2019-03-24T12:13:45.977Z,29.20
2019-03-24T12:14:50.161Z,31.93
2019-03-24T12:15:54.365Z,30.55
2019-03-24T12:16:58.548Z,31.10
2019-03-24T12:18:02.834Z,30.95
2019-03-24T12:19:07.058Z,30.60
2019-03-24T12:20:11.243Z,29.00
2019-03-24T12:21:15.425Z,30.67
2019-03-24T12:22:19.604Z,30.48
2019-03-24T12:23:23.810Z,32.30
2019-03-24T12:24:28.278Z,32.80
2019-03-24T12:25:32.458Z,32.50
2019-03-24T12:26:36.653Z,32.93
2019-03-24T12:27:40.830Z,33.02
2019-03-24T12:28:45.017Z,33.95
2019-03-24T12:29:49.323Z,31.33
2019-03-24T12:30:53.507Z,32.15
2019-03-24T12:31:57.683Z,31.70
2019-03-24T12:33:01.862Z,31.62
2019-03-24T12:34:06.046Z,31.73
2019-03-24T12:35:10.260Z,31.20
2019-03-24T12:36:14.443Z,31.40
2019-03-24T12:37:18.627Z,30.60
2019-03-24T12:38:22.805Z,31.67
2019-03-24T12:39:27.013Z,31.95
2019-03-24T12:40:31.257Z,32.45
2019-03-24T12:41:35.412Z,34.03
2019-03-24T12:42:39.601Z,30.85
2019-03-24T12:43:43.788Z,34.63
2019-03-24T12:44:47.959Z,34.55
2019-03-24T12:45:52.253Z,33.88
2019-03-24T12:46:56.429Z,32.05
2019-03-24T12:48:00.675Z,30.92
2019-03-24T12:49:04.928Z,31.27
2019-03-24T12:50:10.455Z,31.47
2019-03-24T12:51:14.715Z,33.57
2019-03-24T12:52:18.911Z,35.17
2019-03-24T12:53:23.421Z,33.03
2019-03-24T12:54:27.600Z,34.10
2019-03-24T12:55:31.787Z,32.35
2019-03-24T12:56:36.016Z,33.42
2019-03-24T12:57:40.211Z,33.92
2019-03-24T12:58:44.385Z,31.82
2019-03-24T12:59:48.566Z,31.48
2019-03-24T13:00:52.748Z,30.35
2019-03-24T13:01:57.044Z,31.48
2019-03-24T13:03:01.293Z,29.87
2019-03-24T13:04:05.475Z,31.50
2019-03-24T13:05:09.649Z,32.48
2019-03-24T13:06:13.839Z,32.13
2019-03-24T13:07:18.115Z,32.10
2019-03-24T13:08:22.416Z,30.43
2019-03-24T13:09:26.606Z,30.68
2019-03-24T13:10:30.817Z,30.48
2019-03-24T13:11:34.995Z,29.85
2019-03-24T13:12:39.338Z,28.67
2019-03-24T13:13:43.519Z,28.32
2019-03-24T13:14:49.446Z,28.12
2019-03-24T13:15:53.824Z,29.82
2019-03-24T13:16:57.958Z,31.52
2019-03-24T13:18:02.325Z,30.40
2019-03-24T13:19:06.519Z,27.85
2019-03-24T13:20:19.752Z,27.53
2019-03-24T13:21:16.808Z,26.37
2019-03-24T13:22:20.990Z,27.17
2019-03-24T13:23:25.219Z,25.02
2019-03-24T13:24:29.398Z,25.27
2019-03-24T13:25:36.192Z,25.20
2019-03-24T13:26:39.537Z,25.70
2019-03-24T13:27:43.719Z,25.75
2019-03-24T13:28:47.990Z,25.72
2019-03-24T13:29:52.178Z,25.50
2019-03-24T13:30:56.432Z,25.17
2019-03-24T13:32:00.697Z,26.17
2019-03-24T13:33:04.882Z,25.52
2019-03-24T13:34:09.155Z,24.72
2019-03-24T13:35:14.402Z,23.93
2019-03-24T13:36:18.588Z,23.83
2019-03-24T13:37:22.773Z,25.57
2019-03-24T13:38:27.066Z,27.20
2019-03-24T13:39:31.273Z,25.95
2019-03-24T13:40:35.455Z,25.77
2019-03-24T13:41:39.705Z,23.00
2019-03-24T13:42:43.882Z,24.50
2019-03-24T13:43:48.326Z,23.67
2019-03-24T13:44:52.510Z,24.52
2019-03-24T13:45:57.407Z,24.43
2019-03-24T13:47:01.705Z,23.02
2019-03-24T13:48:06.962Z,24.63
2019-03-24T13:49:11.934Z,26.77
2019-03-24T13:50:16.107Z,26.40
2019-03-24T13:51:20.287Z,25.30
2019-03-24T13:52:24.811Z,24.10
2019-03-24T13:53:28.994Z,25.12